createdAt,value
2023-01-31T02:20:23.994Z,10.80
2023-01-31T02:22:57.312Z,10.30
2023-01-31T02:25:55.490Z,10.90
2023-01-31T02:28:31.449Z,10.50
2023-01-31T02:31:41.135Z,9.80
2023-01-31T02:34:23.834Z,9.30
2023-01-31T02:37:24.754Z,10.00
2023-01-31T02:40:11.562Z,8.20
2023-01-31T02:43:22.698Z,9.00
2023-01-31T02:45:53.071Z,10.50
2023-01-31T02:48:37.217Z,9.70
2023-01-31T02:51:31.497Z,10.00
2023-01-31T02:54:09.405Z,10.30
2023-01-31T02:56:37.175Z,10.10
2023-01-31T02:59:11.391Z,10.20
2023-01-31T03:01:41.550Z,10.00
2023-01-31T03:04:11.441Z,10.00
2023-01-31T03:07:07.135Z,9.80
2023-01-31T03:10:06.659Z,10.50
2023-01-31T03:12:50.484Z,9.50
2023-01-31T03:16:35.077Z,8.70
2023-01-31T03:19:01.939Z,10.60
2023-01-31T03:21:36.959Z,11.60
2023-01-31T03:24:05.731Z,11.90
2023-01-31T03:26:33.493Z,11.80
2023-01-31T03:29:01.241Z,12.20
2023-01-31T03:31:43.691Z,11.30
2023-01-31T03:34:13.667Z,11.20
2023-01-31T03:36:44.612Z,11.10
2023-01-31T03:39:59.920Z,11.20
2023-01-31T03:42:42.498Z,11.60
2023-01-31T03:45:18.663Z,10.40
2023-01-31T03:47:47.866Z,11.10
2023-01-31T03:50:28.932Z,9.40
2023-01-31T03:53:11.348Z,9.70
2023-01-31T03:56:28.466Z,11.50
2023-01-31T03:59:00.859Z,17.50
2023-01-31T04:01:34.882Z,20.00
2023-01-31T04:04:06.189Z,18.30
2023-01-31T04:06:34.159Z,19.00
2023-01-31T04:09:01.572Z,19.20
2023-01-31T04:11:29.074Z,17.90
2023-01-31T04:13:56.429Z,13.80
2023-01-31T04:16:28.907Z,13.20
2023-01-31T04:18:56.158Z,13.40
2023-01-31T04:21:25.787Z,13.60
2023-01-31T04:23:57.932Z,12.30
2023-01-31T04:26:25.883Z,11.90
2023-01-31T04:28:53.049Z,13.50
2023-01-31T04:31:20.231Z,12.90
2023-01-31T04:33:48.184Z,12.20
2023-01-31T04:36:15.332Z,14.60
2023-01-31T04:38:42.396Z,13.80
2023-01-31T04:41:11.151Z,13.70
2023-01-31T04:43:38.507Z,12.50
2023-01-31T04:46:10.681Z,11.90
2023-01-31T04:48:39.867Z,12.70
2023-01-31T04:51:08.898Z,12.40
2023-01-31T04:53:36.346Z,12.00
2023-01-31T04:56:05.513Z,12.70
2023-01-31T04:58:42.805Z,11.60
2023-01-31T05:01:09.977Z,14.60
2023-01-31T05:03:37.205Z,16.60
2023-01-31T05:06:04.869Z,13.40
2023-01-31T05:08:32.808Z,15.00
2023-01-31T05:11:06.447Z,16.60
2023-01-31T05:13:42.810Z,17.00
2023-01-31T05:16:10.815Z,22.50
2023-01-31T05:18:40.075Z,27.40
2023-01-31T05:21:07.632Z,26.80
2023-01-31T05:23:34.800Z,26.00
2023-01-31T05:26:09.443Z,20.50
2023-01-31T05:28:36.965Z,18.20
2023-01-31T05:31:11.273Z,16.80
2023-01-31T05:33:39.165Z,14.80
2023-01-31T05:36:06.927Z,13.10
2023-01-31T05:38:33.891Z,12.00
2023-01-31T05:41:00.811Z,12.00
2023-01-31T05:43:27.849Z,11.70
2023-01-31T05:45:55.126Z,12.20
2023-01-31T05:48:22.457Z,12.50
2023-01-31T05:50:50.572Z,14.30
2023-01-31T05:53:18.600Z,13.70
2023-01-31T05:55:46.472Z,11.70
2023-01-31T05:58:13.637Z,13.10
2023-01-31T06:00:40.796Z,11.60
2023-01-31T06:03:08.266Z,10.30
2023-01-31T06:05:35.681Z,11.30
2023-01-31T06:08:03.161Z,12.50
2023-01-31T06:10:32.000Z,12.10
2023-01-31T06:12:59.872Z,11.50
2023-01-31T06:15:27.151Z,12.20
2023-01-31T06:17:54.735Z,12.90
2023-01-31T06:20:26.367Z,12.70
2023-01-31T06:22:54.133Z,12.00
2023-01-31T06:25:23.258Z,11.00
2023-01-31T06:27:50.479Z,11.50
2023-01-31T06:30:20.444Z,12.60
2023-01-31T06:32:53.481Z,11.10
2023-01-31T06:35:21.868Z,12.20
2023-01-31T06:37:49.540Z,11.30
2023-01-31T06:40:17.084Z,13.20
2023-01-31T06:42:44.224Z,12.70
2023-01-31T06:45:11.477Z,10.90
2023-01-31T06:47:38.423Z,10.30
2023-01-31T06:50:06.393Z,9.10
2023-01-31T06:52:33.676Z,10.00
2023-01-31T06:55:03.455Z,11.50
2023-01-31T06:57:32.625Z,12.30
2023-01-31T06:59:59.707Z,13.80
2023-01-31T07:02:27.471Z,13.60
2023-01-31T07:04:55.703Z,13.80
2023-01-31T07:07:28.352Z,11.00
2023-01-31T07:09:56.409Z,11.40
2023-01-31T11:24:28.245Z,12.00
2023-01-31T11:27:09.776Z,11.60
2023-01-31T11:29:43.126Z,12.00
2023-01-31T11:32:18.378Z,11.40
2023-01-31T11:35:15.375Z,11.30
2023-01-31T11:37:57.084Z,10.20
2023-01-31T11:40:29.984Z,10.50
2023-01-31T11:42:58.831Z,10.70
2023-01-31T11:45:37.355Z,10.40
2023-01-31T11:48:13.401Z,11.20
2023-01-31T11:50:45.582Z,10.90
2023-01-31T11:53:21.064Z,10.70
2023-01-31T11:55:49.190Z,8.80
2023-01-31T11:58:29.673Z,10.80
2023-01-31T12:00:57.722Z,11.70
2023-01-31T12:03:25.908Z,12.40
2023-01-31T12:06:06.661Z,12.40
2023-01-31T12:08:37.812Z,12.80
2023-01-31T12:11:19.706Z,13.50
2023-01-31T12:13:48.396Z,11.70
2023-01-31T12:16:23.803Z,13.10
2023-01-31T12:19:00.305Z,14.00
2023-01-31T12:24:12.898Z,14.60
2023-01-31T12:26:56.040Z,11.80
2023-01-31T12:30:00.478Z,15.50
2023-01-31T12:32:40.134Z,14.70
2023-01-31T12:35:32.110Z,14.00
2023-01-31T12:38:44.989Z,13.70
2023-01-31T12:41:33.326Z,14.30
2023-01-31T12:44:13.118Z,17.20
2023-01-31T12:47:11.456Z,17.10
2023-01-31T12:49:54.923Z,17.80
2023-01-31T12:52:30.806Z,17.60
2023-01-31T12:55:25.589Z,15.70
2023-01-31T12:58:11.381Z,16.80
2023-01-31T13:00:47.416Z,20.50
2023-01-31T13:03:53.132Z,20.30
2023-01-31T13:06:28.777Z,23.80
2023-01-31T13:09:12.793Z,19.60
2023-01-31T13:12:03.260Z,20.60
2023-01-31T13:14:39.687Z,18.70
2023-01-31T13:17:10.842Z,20.50
2023-01-31T13:20:05.598Z,19.30
2023-01-31T13:22:37.452Z,19.40
2023-01-31T13:25:13.091Z,16.70
2023-01-31T13:27:44.208Z,17.50
2023-01-31T13:30:45.388Z,17.70
2023-01-31T13:33:39.608Z,15.80
2023-01-31T13:36:16.996Z,14.60
2023-01-31T13:38:45.485Z,15.50
2023-01-31T13:41:34.242Z,15.90
2023-01-31T13:44:03.086Z,16.80
2023-01-31T13:46:39.328Z,16.60
2023-01-31T13:49:10.704Z,17.40
2023-01-31T13:51:51.616Z,18.90
2023-01-31T13:54:25.520Z,16.20
2023-01-31T13:56:55.139Z,15.60
2023-01-31T13:59:26.165Z,16.80
2023-01-31T14:01:55.138Z,16.40
2023-01-31T14:04:26.722Z,17.30
2023-01-31T14:07:18.134Z,17.00
2023-01-31T14:10:12.599Z,17.50
2023-01-31T14:12:40.897Z,15.10
2023-01-31T14:15:50.067Z,16.50
2023-01-31T14:18:43.063Z,15.50
2023-01-31T14:21:29.736Z,16.00
2023-01-31T14:24:02.025Z,15.50
2023-01-31T14:26:36.543Z,16.20
2023-01-31T14:29:19.196Z,18.90
2023-01-31T14:31:48.264Z,15.50
2023-01-31T14:34:17.598Z,17.00
2023-01-31T14:37:04.096Z,14.10
2023-01-31T14:40:12.278Z,15.90
2023-01-31T14:45:25.392Z,14.80
2023-01-31T14:47:53.811Z,16.20
2023-01-31T14:50:44.996Z,12.30
2023-01-31T14:53:58.205Z,14.50
2023-01-31T14:56:48.725Z,12.70
2023-01-31T14:59:57.531Z,11.60
2023-01-31T15:02:35.781Z,12.60
2023-01-31T15:05:10.176Z,11.70
2023-01-31T15:08:07.085Z,13.60
2023-01-31T15:11:15.004Z,9.00
2023-01-31T15:13:48.493Z,11.80
2023-01-31T15:16:33.704Z,12.20
2023-01-31T15:19:07.984Z,12.20
2023-01-31T15:21:57.103Z,12.80
2023-01-31T15:24:25.263Z,12.00
2023-01-31T15:26:53.987Z,10.10
2023-01-31T15:29:26.728Z,10.80
2023-01-31T15:31:58.483Z,11.20
2023-01-31T15:34:34.586Z,12.00
2023-01-31T15:37:18.109Z,11.80
2023-01-31T15:39:52.208Z,10.60
2023-01-31T15:42:23.031Z,12.90
2023-01-31T15:44:51.825Z,13.00
2023-01-31T15:47:23.646Z,10.40
2023-01-31T15:49:51.857Z,11.30
2023-01-31T15:52:23.176Z,11.50
2023-01-31T15:54:57.831Z,10.40
2023-01-31T15:57:33.097Z,10.30
2023-01-31T16:00:02.056Z,11.20
2023-01-31T16:02:38.093Z,11.20
2023-01-31T16:05:07.276Z,10.30
2023-01-31T16:07:40.611Z,10.50
2023-01-31T16:10:12.383Z,8.80
2023-01-31T16:12:44.875Z,11.20
2023-01-31T20:30:49.257Z,12.90
2023-01-31T20:33:16.719Z,11.80
2023-01-31T20:35:44.019Z,11.40
2023-01-31T20:38:16.804Z,13.90
2023-01-31T20:40:49.666Z,13.30
2023-01-31T20:43:17.919Z,11.60
2023-01-31T20:45:45.278Z,11.70
2023-01-31T20:48:12.594Z,13.20
2023-01-31T20:50:39.960Z,11.30
2023-01-31T20:53:15.979Z,12.30
2023-01-31T20:55:43.088Z,14.60
2023-01-31T20:58:10.256Z,13.10
2023-01-31T21:00:39.059Z,14.00
2023-01-31T21:03:06.008Z,14.30
2023-01-31T21:05:37.975Z,14.80
2023-01-31T21:08:05.731Z,13.70
2023-01-31T21:10:33.087Z,13.10
2023-01-31T21:13:00.881Z,13.30
2023-01-31T21:15:28.791Z,11.90
2023-01-31T21:17:57.026Z,12.40
2023-01-31T21:20:24.348Z,12.60
2023-01-31T21:22:51.589Z,13.70
2023-01-31T21:25:22.101Z,12.60
2023-01-31T21:27:50.434Z,13.10
2023-01-31T21:30:17.637Z,12.60
2023-01-31T21:32:50.024Z,12.50
2023-01-31T21:35:17.509Z,14.00
2023-01-31T21:37:44.566Z,14.20
2023-01-31T21:40:17.285Z,13.60
2023-01-31T21:42:44.759Z,13.50
2023-01-31T21:45:11.958Z,15.70
2023-01-31T21:47:59.027Z,15.60
2023-01-31T21:50:26.424Z,16.20
2023-01-31T21:52:53.407Z,15.10
2023-01-31T21:55:23.449Z,14.80
2023-01-31T21:57:55.546Z,14.40
2023-01-31T22:00:23.263Z,15.90
2023-01-31T22:02:51.734Z,15.20
2023-01-31T22:05:20.315Z,14.60
2023-01-31T22:07:47.318Z,14.20
2023-01-31T22:10:15.905Z,13.40
2023-01-31T22:12:43.163Z,13.60
2023-01-31T22:15:10.150Z,14.30
2023-01-31T22:17:37.600Z,14.30
2023-01-31T22:20:05.127Z,14.40
2023-01-31T22:22:32.062Z,12.60
2023-01-31T22:24:59.065Z,13.40
2023-01-31T22:27:25.967Z,14.00
2023-01-31T22:29:54.177Z,12.70
2023-01-31T22:32:23.782Z,13.40
2023-01-31T22:34:55.896Z,12.20
2023-01-31T22:37:28.356Z,12.50
2023-01-31T22:39:55.402Z,12.40
2023-01-31T22:42:23.955Z,13.00
2023-01-31T22:44:56.271Z,13.20
2023-01-31T22:47:23.860Z,15.20
2023-01-31T22:49:50.871Z,13.40
2023-01-31T22:52:18.092Z,13.30
2023-01-31T22:54:45.081Z,13.50
2023-01-31T22:57:12.179Z,14.30
2023-01-31T22:59:39.070Z,14.90
2023-01-31T23:02:06.154Z,17.10
2023-01-31T23:04:33.069Z,18.00
2023-01-31T23:07:05.596Z,18.40
2023-01-31T23:09:32.616Z,16.20
2023-01-31T23:12:00.099Z,18.00
2023-01-31T23:14:27.616Z,19.10
2023-01-31T23:17:13.083Z,18.30
2023-01-31T23:19:40.014Z,18.90
2023-01-31T23:22:06.953Z,17.80
2023-01-31T23:24:34.873Z,18.80
2023-01-31T23:27:01.924Z,18.60
2023-01-31T23:29:29.442Z,20.90
2023-01-31T23:31:56.600Z,17.30
2023-01-31T23:34:23.917Z,17.90
2023-01-31T23:36:53.212Z,17.70
2023-01-31T23:39:25.292Z,17.50
2023-01-31T23:41:52.235Z,17.70
2023-01-31T23:44:19.179Z,14.60
2023-01-31T23:46:46.216Z,14.80
2023-01-31T23:49:13.354Z,14.60
2023-01-31T23:51:40.993Z,14.80
2023-01-31T23:54:13.163Z,14.80
2023-01-31T23:56:40.189Z,14.60
2023-01-31T23:59:07.163Z,14.40
